Time;durP1;ratioP1;P1;durP2;ratioP2;P2;SDS_P1;SDS_P2;PMS_P1;PMS_P2;Temp;Humidity;BMP_temperature;BMP_pressure;BME280_temperature;BME280_humidity;BME280_pressure;Samples;Min_cycle;Max_cycle;Signal;HPM_P1;HPM_P2
2023/05/02 07:01:20;;;;;;;0.57;0.50;;;15.30;99.90;16.80;102354.00;;;;6279350;22;1395038;-65
2023/05/02 07:03:46;;;;;;;1.40;1.30;;;14.70;99.90;16.90;102313.00;;;;6313014;22;20172;-64
2023/05/02 07:06:13;;;;;;;6.03;0.53;;;14.90;99.90;17.60;102323.00;;;;6339316;22;20144;-64
2023/05/02 07:08:39;;;;;;;0.60;0.60;;;14.70;99.90;18.20;102322.00;;;;6338603;22;20154;-64
2023/05/02 07:11:04;;;;;;;0.57;0.57;;;15.20;99.90;17.40;102309.00;;;;6340774;22;20143;-64
2023/05/02 07:13:30;;;;;;;0.50;0.50;;;15.00;99.90;18.70;102298.00;;;;6338933;22;20432;-64
2023/05/02 07:15:57;;;;;;;0.40;0.40;;;15.70;99.90;18.90;102342.00;;;;6340295;22;20564;-64
2023/05/02 07:18:23;;;;;;;1.15;1.02;;;15.90;99.90;18.40;102357.00;;;;6338640;22;20146;-65
2023/05/02 07:20:49;;;;;;;0.70;0.70;;;15.90;99.90;16.70;102394.00;;;;6339114;22;20480;-64
2023/05/02 07:23:17;;;;;;;3.40;1.23;;;14.80;99.90;18.70;102370.00;;;;6312723;22;20193;-64
2023/05/02 07:25:44;;;;;;;1.33;0.80;;;15.00;99.90;18.60;102369.00;;;;6338995;22;20138;-65
2023/05/02 07:28:10;;;;;;;2.13;1.87;;;15.50;99.90;19.10;102382.00;;;;6338976;22;20589;-65
2023/05/02 07:30:36;;;;;;;3.23;2.37;;;16.40;99.90;16.60;102412.00;;;;6340059;22;20154;-64
2023/05/02 07:33:02;;;;;;;0.80;0.80;;;15.20;99.90;20.10;102368.00;;;;6340574;22;20583;-64
2023/05/02 07:35:30;;;;;;;3.40;2.75;;;16.00;99.90;18.70;102409.00;;;;6339945;22;20625;-65
2023/05/02 07:38:02;;;;;;;0.85;0.85;;;16.90;99.90;19.60;102355.00;;;;6338800;22;20220;-64
2023/05/02 07:40:28;;;;;;;4.65;2.28;;;16.60;99.90;18.80;102393.00;;;;6338853;22;20167;-64
2023/05/02 07:42:54;;;;;;;0.95;0.95;;;16.70;99.90;19.30;102381.00;;;;6313058;22;20592;-65
2023/05/02 07:45:23;;;;;;;1.00;0.95;;;17.00;99.90;18.80;102413.00;;;;6340313;22;20140;-65
2023/05/02 07:47:58;;;;;;;1.35;0.98;;;16.70;99.90;17.60;102435.00;;;;6338999;22;20143;-65
2023/05/02 07:50:25;;;;;;;0.75;0.75;;;15.70;99.90;17.90;102426.00;;;;6338942;22;20146;-65
2023/05/02 07:52:55;;;;;;;0.50;0.50;;;15.70;99.90;18.80;102405.00;;;;6312948;22;20156;-65
2023/05/02 07:55:21;;;;;;;0.20;0.20;;;16.10;99.90;19.30;102405.00;;;;6338727;22;20151;-65
2023/05/02 07:57:48;;;;;;;0.10;0.10;;;16.50;99.90;20.70;102378.00;;;;6338983;22;20140;-65
2023/05/02 08:00:17;;;;;;;0.50;0.50;;;17.30;99.90;22.90;102336.00;;;;6339645;22;20191;-65
2023/05/02 08:02:46;;;;;;;0.30;0.30;;;18.60;99.90;21.80;102372.00;;;;6340307;22;20164;-65
2023/05/02 08:05:12;;;;;;;1.05;0.52;;;19.00;99.90;19.00;102415.00;;;;6337866;22;20147;-66
2023/05/02 08:07:41;;;;;;;0.40;0.40;;;17.70;99.90;21.10;102357.00;;;;6340179;22;20460;-65
2023/05/02 08:10:12;;;;;;;0.40;0.40;;;17.40;99.90;20.10;102407.00;;;;6340320;22;20172;-65
2023/05/02 08:12:41;;;;;;;0.17;0.17;;;17.10;99.90;18.60;102436.00;;;;6338791;22;20155;-65
2023/05/02 08:15:11;;;;;;;0.10;0.10;;;16.30;99.90;19.70;102419.00;;;;6312541;22;20485;-65
2023/05/02 08:17:37;;;;;;;0.20;0.20;;;16.30;99.90;19.30;102414.00;;;;6312594;22;20236;-65
2023/05/02 08:20:03;;;;;;;0.30;0.30;;;16.30;99.90;19.00;102421.00;;;;6311672;22;20642;-65
2023/05/02 08:22:32;;;;;;;0.10;0.10;;;16.50;99.90;18.90;102433.00;;;;6340103;22;20246;-65
2023/05/02 08:25:01;;;;;;;0.30;0.30;;;16.10;99.90;20.50;102414.00;;;;6313102;22;20285;-65
2023/05/02 08:27:27;;;;;;;0.30;0.30;;;17.00;99.90;21.80;102401.00;;;;6312383;22;20580;-65
2023/05/02 08:29:55;;;;;;;0.43;0.43;;;17.80;99.90;20.30;102436.00;;;;6338343;22;20239;-64
2023/05/02 08:32:25;;;;;;;0.10;0.10;;;17.40;99.90;21.10;102428.00;;;;6338517;22;20169;-64
2023/05/02 08:35:00;;;;;;;0.10;0.10;;;17.40;99.90;21.00;102429.00;;;;6338136;22;20143;-65
2023/05/02 08:37:30;;;;;;;0.17;0.17;;;17.40;99.90;19.70;102450.00;;;;6312592;22;20162;-64
2023/05/02 08:39:55;;;;;;;0.25;0.20;;;16.90;99.90;20.60;102455.00;;;;6312498;22;20194;-65
2023/05/02 08:42:22;;;;;;;0.10;0.10;;;17.10;99.90;21.50;102439.00;;;;6338183;22;20172;-65
2023/05/02 08:44:50;;;;;;;0.10;0.10;;;17.90;99.90;22.20;102416.00;;;;6338196;22;20192;-65
2023/05/02 08:47:18;;;;;;;0.20;0.20;;;18.40;99.90;22.70;102391.00;;;;6338016;22;20151;-65
2023/05/02 08:49:46;;;;;;;0.47;0.47;;;18.90;99.90;21.80;102429.00;;;;6337703;22;20136;-65
2023/05/02 08:52:13;;;;;;;0.93;0.93;;;19.10;99.90;22.50;102400.00;;;;6338372;22;20135;-65
2023/05/02 08:54:39;;;;;;;1.55;0.57;;;18.90;99.90;22.90;102416.00;;;;6337933;22;20448;-65
2023/05/02 08:57:06;;;;;;;0.10;0.10;;;19.50;99.90;23.00;102423.00;;;;6337736;22;20560;-65
2023/05/02 08:59:32;;;;;;;2.33;1.35;;;19.60;99.90;22.60;102432.00;;;;6337877;22;20167;-65
2023/05/02 09:02:12;;;;;;;1.05;0.57;;;19.30;99.90;21.90;102402.00;;;;6337853;22;20183;-65
2023/05/02 09:04:41;;;;;;;2.60;2.50;;;19.20;99.90;22.00;102445.00;;;;6337957;22;20143;-65
2023/05/02 09:07:10;;;;;;;0.63;0.63;;;19.00;99.90;23.00;102443.00;;;;6337819;22;20140;-65
2023/05/02 09:09:39;;;;;;;0.20;0.20;;;19.30;99.90;22.20;102453.00;;;;6338387;22;20150;-65
2023/05/02 09:12:05;;;;;;;1.90;1.77;;;19.00;99.90;19.60;102496.00;;;;6337831;22;20175;-65
2023/05/02 09:14:34;;;;;;;2.90;1.20;;;18.00;99.90;19.60;102492.00;;;;6339788;22;20148;-65
2023/05/02 09:17:03;;;;;;;1.52;1.10;;;17.60;99.90;19.10;102516.00;;;;6337286;22;20135;-65
2023/05/02 09:19:29;;;;;;;1.25;1.15;;;17.10;99.90;19.00;102522.00;;;;6339348;22;20135;-65
2023/05/02 09:22:00;;;;;;;0.40;0.40;;;16.60;99.90;18.50;102532.00;;;;6337989;22;20172;-65
2023/05/02 09:24:27;;;;;;;0.82;0.82;;;16.20;99.90;19.40;102525.00;;;;6311851;22;20486;-65
2023/05/02 09:27:04;;;;;;;0.30;0.30;;;16.70;99.90;20.80;102509.00;;;;6338024;22;20145;-65
2023/05/02 09:29:39;;;;;;;0.90;0.50;;;17.40;99.90;20.90;102507.00;;;;6311945;22;20240;-65
2023/05/02 09:32:05;;;;;;;0.47;0.47;;;17.80;99.90;22.60;102492.00;;;;6337985;22;20146;-65
2023/05/02 09:34:33;;;;;;;0.20;0.20;;;18.80;99.90;22.60;102498.00;;;;6339143;22;20144;-65
2023/05/02 09:36:59;;;;;;;1.70;0.52;;;19.30;99.90;22.10;102506.00;;;;6337522;22;20247;-65
2023/05/02 09:39:28;;;;;;;23.38;1.10;;;19.30;99.90;22.90;102501.00;;;;6337654;22;20572;-65
2023/05/02 09:41:55;;;;;;;2.63;1.42;;;19.50;99.90;22.20;102509.00;;;;6337744;22;20190;-65
2023/05/02 09:44:25;;;;;;;1.77;1.17;;;19.50;99.90;22.10;102507.00;;;;6311872;22;20152;-66
2023/05/02 09:46:54;;;;;;;1.27;1.17;;;19.60;99.90;22.40;102505.00;;;;6337378;22;20142;-66
2023/05/02 09:49:41;;;;;;;0.20;0.20;;;19.10;99.90;22.30;102507.00;;;;6337533;22;20514;-66
2023/05/02 09:52:16;;;;;;;0.55;0.55;;;19.20;99.90;23.30;102501.00;;;;6311630;22;20159;-66
2023/05/02 09:54:43;;;;;;;0.30;0.30;;;19.60;99.90;23.00;102499.00;;;;6338001;22;20176;-66
2023/05/02 09:57:09;;;;;;;0.30;0.30;;;19.20;99.90;22.50;102511.00;;;;6337738;22;20175;-65
2023/05/02 09:59:35;;;;;;;1.33;1.20;;;19.10;99.90;20.50;102535.00;;;;6337588;22;20223;-65
2023/05/02 10:02:08;;;;;;;0.20;0.20;;;18.30;99.90;20.60;102534.00;;;;6337298;22;20175;-65
2023/05/02 10:04:38;;;;;;;1.10;0.65;;;17.70;99.90;19.50;102552.00;;;;6337928;22;20511;-65
2023/05/02 10:07:17;;;;;;;0.32;0.32;;;17.30;99.90;21.70;102526.00;;;;6337479;22;20193;-65
2023/05/02 10:09:48;;;;;;;1.65;0.88;;;17.80;99.90;21.10;102538.00;;;;6337942;22;20131;-65
2023/05/02 10:12:28;;;;;;;1.05;1.05;;;18.10;99.90;21.60;102533.00;;;;6337392;22;20143;-65
2023/05/02 10:15:05;;;;;;;0.57;0.57;;;18.20;99.90;22.30;102516.00;;;;6312113;22;20158;-66
2023/05/02 10:18:00;;;;;;;0.90;0.90;;;18.90;99.90;23.10;102498.00;;;;6337090;22;20144;-65
2023/05/02 10:20:37;;;;;;;0.52;0.52;;;19.70;99.90;22.10;102519.00;;;;6337925;22;20208;-65
2023/05/02 10:33:46;;;;;;;0.10;0.10;;;17.20;99.90;21.00;102420.00;;;;5004418;27;4089473;-66
2023/05/02 10:36:22;;;;;;;4.85;1.63;;;17.60;99.90;22.70;102475.00;;;;5127692;28;20182;-66
2023/05/02 10:39:18;;;;;;;3.30;0.65;;;18.60;99.90;23.50;102476.00;;;;5121462;28;20206;-66
2023/05/02 10:41:53;;;;;;;1.88;1.00;;;19.60;99.90;20.10;102512.00;;;;5112475;28;20195;-66
2023/05/02 10:44:42;;;;;;;2.30;2.20;;;18.50;99.90;22.00;102484.00;;;;5122803;28;20274;-66
2023/05/02 10:47:23;;;;;;;0.40;0.40;;;18.60;99.90;22.40;102487.00;;;;5114001;28;20181;-66
2023/05/02 10:50:10;;;;;;;1.17;1.08;;;19.00;99.90;20.50;102515.00;;;;5096495;28;20191;-66
2023/05/02 10:53:28;;;;;;;0.45;0.45;;;18.70;99.90;21.40;102521.00;;;;5116864;28;20212;-66
2023/05/02 10:56:21;;;;;;;1.10;1.00;;;18.80;99.90;23.20;102511.00;;;;5114090;28;20183;-66
2023/05/02 11:02:47;;;;;;;0.10;0.10;;;19.60;99.90;22.50;102545.00;;;;5021460;28;20199;-66
2023/05/02 11:05:28;;;;;;;1.27;1.20;;;18.90;99.90;23.70;102553.00;;;;5047830;28;20207;-66
2023/05/02 11:08:23;;;;;;;0.10;0.10;;;19.90;99.90;22.90;102559.00;;;;5034630;28;20395;-66
2023/05/02 11:10:58;;;;;;;2.08;1.95;;;19.60;99.90;23.40;102554.00;;;;5048542;28;20185;-67
2023/05/02 11:13:52;;;;;;;0.50;0.40;;;20.20;99.90;24.90;102542.00;;;;5120297;28;20190;-66
2023/05/02 11:16:58;;;;;;;0.70;0.70;;;20.90;99.90;25.40;102481.00;;;;5117310;28;20215;-66
2023/05/02 11:20:00;;;;;;;0.40;0.40;;;21.60;99.90;24.40;102509.00;;;;5103394;28;20204;-66
2023/05/02 11:22:56;;;;;;;1.88;1.10;;;21.20;99.90;24.10;102515.00;;;;5111990;28;20220;-66
2023/05/02 11:26:15;;;;;;;1.17;0.70;;;21.30;99.90;21.90;102536.00;;;;5125203;28;20201;-66
2023/05/02 11:29:05;;;;;;;0.20;0.20;;;19.70;99.90;23.20;102530.00;;;;5119850;27;20192;-67
2023/05/02 11:31:45;;;;;;;0.22;0.22;;;19.70;99.90;23.60;102488.00;;;;5071112;28;20208;-66
2023/05/02 11:34:19;;;;;;;1.05;0.93;;;19.90;99.90;24.70;102515.00;;;;5119453;28;20278;-66
2023/05/02 11:37:15;;;;;;;2.17;0.95;;;20.80;99.90;23.00;102545.00;;;;5114007;27;20638;-66
2023/05/02 11:39:50;;;;;;;0.10;0.10;;;20.40;99.90;23.80;102536.00;;;;5098964;28;20272;-66
2023/05/02 11:42:33;;;;;;;0.73;0.57;;;20.40;99.90;21.70;102543.00;;;;5114016;28;20191;-66
2023/05/02 11:45:12;;;;;;;0.40;0.40;;;19.60;99.90;21.80;102560.00;;;;5102410;28;20646;-66
2023/05/02 11:48:01;;;;;;;1.05;0.82;;;19.30;99.90;20.80;102586.00;;;;5111436;28;20267;-66
2023/05/02 11:50:47;;;;;;;0.20;0.20;;;18.90;99.90;22.90;102562.00;;;;5107048;28;20173;-66
2023/05/02 11:53:42;;;;;;;1.85;1.08;;;19.00;99.90;22.10;102572.00;;;;5100275;28;20236;-66
2023/05/02 11:56:16;;;;;;;0.25;0.20;;;19.40;99.90;23.30;102564.00;;;;5094665;28;20183;-66
2023/05/02 11:59:03;;;;;;;0.50;0.50;;;19.60;99.90;21.00;102572.00;;;;5102799;28;20184;-66
2023/05/02 12:01:38;;;;;;;2.72;1.15;;;18.70;99.90;21.60;102557.00;;;;5045234;28;20644;-66
2023/05/02 12:04:27;;;;;;;0.40;0.40;;;18.20;99.90;21.30;102577.00;;;;5101530;28;20557;-66
2023/05/02 12:07:16;;;;;;;0.90;0.90;;;18.10;99.90;20.80;102562.00;;;;5090529;28;20201;-66
2023/05/02 12:09:56;;;;;;;0.27;0.27;;;18.00;99.90;22.10;102565.00;;;;5097524;28;20226;-66
2023/05/02 12:12:28;;;;;;;0.50;0.50;;;18.10;99.90;22.50;102567.00;;;;5101868;28;20217;-66
2023/05/02 12:15:17;;;;;;;0.20;0.20;;;18.60;99.90;22.50;102583.00;;;;5088718;28;20654;-66
2023/05/02 12:17:55;;;;;;;1.70;1.60;;;18.80;99.90;21.20;102591.00;;;;5082888;28;20642;-66
2023/05/02 12:20:52;;;;;;;1.10;1.03;;;18.50;99.90;21.00;102599.00;;;;5097357;28;20179;-66
2023/05/02 12:23:29;;;;;;;2.90;1.53;;;18.20;99.90;19.90;102604.00;;;;5077365;28;20191;-66
2023/05/02 12:26:15;;;;;;;0.20;0.20;;;17.70;99.90;19.80;102596.00;;;;5109115;28;20197;-66
2023/05/02 12:28:53;;;;;;;0.20;0.20;;;17.10;99.90;20.40;102613.00;;;;5096992;28;20191;-66
2023/05/02 12:31:22;;;;;;;0.40;0.40;;;17.10;99.90;20.00;102626.00;;;;5107364;28;20312;-66
2023/05/02 12:34:11;;;;;;;0.20;0.20;;;16.80;99.90;21.30;102600.00;;;;5096511;28;20655;-66
2023/05/02 12:37:02;;;;;;;0.60;0.60;;;17.40;99.90;20.50;102622.00;;;;5069254;28;20205;-66
2023/05/02 12:39:43;;;;;;;1.13;0.93;;;17.50;99.90;20.00;102638.00;;;;5052581;28;20201;-66
2023/05/02 12:42:22;;;;;;;0.63;0.63;;;17.50;99.90;20.60;102638.00;;;;5090864;28;20540;-66
2023/05/02 12:45:17;;;;;;;0.50;0.50;;;17.50;99.90;20.90;102625.00;;;;5090345;28;20221;-66
2023/05/02 12:48:24;;;;;;;1.77;1.67;;;17.40;99.90;20.50;102620.00;;;;5088945;28;20213;-66
2023/05/02 12:51:23;;;;;;;0.93;0.77;;;17.20;99.90;20.90;102620.00;;;;5089369;28;20217;-66
2023/05/02 12:54:01;;;;;;;0.63;0.63;;;17.40;99.90;20.60;102621.00;;;;5105470;28;20276;-66
2023/05/02 12:56:51;;;;;;;0.20;0.20;;;17.30;99.90;20.30;102632.00;;;;5091962;28;20562;-66
2023/05/02 13:00:12;;;;;;;0.23;0.23;;;17.20;99.90;20.80;102623.00;;;;5090292;28;20201;-66
2023/05/02 13:02:53;;;;;;;0.27;0.27;;;17.50;99.90;20.80;102631.00;;;;5030216;28;20588;-66
2023/05/02 13:05:25;;;;;;;2.73;1.30;;;17.40;99.90;20.90;102593.00;;;;5031939;28;20753;-66
2023/05/02 13:08:15;;;;;;;0.40;0.40;;;17.40;99.90;20.00;102639.00;;;;5027971;28;20362;-66
2023/05/02 13:10:50;;;;;;;0.83;0.83;;;16.80;99.90;20.20;102625.00;;;;5037398;28;20282;-66
2023/05/02 13:13:31;;;;;;;0.47;0.47;;;16.90;99.90;20.10;102618.00;;;;5097990;28;20216;-66
2023/05/02 13:16:09;;;;;;;0.20;0.20;;;16.90;99.90;20.20;102632.00;;;;5099821;28;20650;-66
2023/05/02 13:19:08;;;;;;;0.93;0.87;;;17.00;99.90;19.60;102641.00;;;;5100629;28;20194;-66
2023/05/02 13:21:46;;;;;;;0.70;0.70;;;17.00;99.90;18.60;102650.00;;;;5093411;28;20189;-66
2023/05/02 13:24:17;;;;;;;0.10;0.10;;;16.40;99.90;20.50;102630.00;;;;5105150;28;20192;-67
2023/05/02 13:27:07;;;;;;;0.50;0.20;;;16.60;99.90;20.40;102642.00;;;;5092594;28;20193;-66
2023/05/02 13:29:53;;;;;;;0.10;0.10;;;16.80;99.90;20.60;102623.00;;;;5071546;28;20666;-66
2023/05/02 13:32:39;;;;;;;0.37;0.30;;;17.00;99.90;19.80;102627.00;;;;5103991;28;20221;-66
2023/05/02 13:35:17;;;;;;;0.60;0.60;;;17.00;99.90;19.30;102632.00;;;;5102672;28;20249;-66
2023/05/02 13:38:03;;;;;;;0.63;0.63;;;16.80;99.90;19.20;102634.00;;;;5088808;28;20196;-65
2023/05/02 13:40:35;;;;;;;4.73;0.93;;;16.20;99.90;19.10;102650.00;;;;5089580;28;20563;-66
2023/05/02 13:43:07;;;;;;;0.63;0.50;;;16.30;99.90;19.50;102643.00;;;;5097467;28;20188;-66
2023/05/02 13:45:39;;;;;;;0.10;0.10;;;16.50;99.90;20.80;102621.00;;;;5095714;28;20187;-66
2023/05/02 13:48:08;;;;;;;1.27;1.17;;;16.70;99.90;20.30;102633.00;;;;5108577;28;20542;-66
2023/05/02 13:50:42;;;;;;;1.50;1.40;;;17.20;99.90;18.80;102651.00;;;;5081892;28;20566;-66
2023/05/02 13:53:10;;;;;;;0.47;0.47;;;16.80;99.90;19.10;102651.00;;;;5076425;28;20201;-66
2023/05/02 13:56:00;;;;;;;0.83;0.40;;;16.50;99.90;20.20;102631.00;;;;5097518;28;20193;-66
2023/05/02 13:59:07;;;;;;;0.33;0.33;;;16.50;99.90;19.20;102629.00;;;;5077239;28;20193;-65
2023/05/02 14:01:39;;;;;;;0.63;0.63;;;16.50;99.90;19.40;102628.00;;;;5102013;28;20200;-66
2023/05/02 14:04:31;;;;;;;7.03;1.33;;;16.50;99.90;18.30;102639.00;;;;5106582;28;20196;-66
2023/05/02 14:07:23;;;;;;;2.10;0.70;;;16.20;99.90;19.20;102629.00;;;;5107204;28;20176;-66
2023/05/02 14:10:11;;;;;;;2.20;1.07;;;15.90;99.90;19.50;102598.00;;;;5103501;28;20271;-66
2023/05/02 14:13:03;;;;;;;1.17;1.00;;;16.40;99.90;18.80;102649.00;;;;5094519;28;20207;-66
2023/05/02 14:15:52;;;;;;;1.40;0.97;;;16.20;99.90;19.90;102623.00;;;;5058331;28;20202;-66
2023/05/02 14:18:41;;;;;;;0.10;0.10;;;16.30;99.90;20.80;102610.00;;;;5035302;28;20185;-66
2023/05/02 14:21:13;;;;;;;1.40;1.17;;;16.80;99.90;21.00;102615.00;;;;5051504;28;20694;-66
2023/05/02 14:24:05;;;;;;;1.50;1.40;;;17.20;99.90;19.20;102627.00;;;;5014382;28;20192;-66
2023/05/02 14:26:53;;;;;;;3.70;2.07;;;16.50;99.90;20.50;102614.00;;;;5010951;28;20565;-66
2023/05/02 14:29:54;;;;;;;0.70;0.30;;;16.90;99.90;19.30;102628.00;;;;5020147;28;20206;-66
2023/05/02 14:32:43;;;;;;;0.83;0.60;;;16.40;99.90;19.20;102640.00;;;;5030741;28;20256;-66
2023/05/02 14:35:41;;;;;;;0.53;0.53;;;16.20;99.90;19.50;102634.00;;;;5100776;28;20181;-66
2023/05/02 14:38:30;;;;;;;15.33;1.27;;;16.50;99.90;19.20;102640.00;;;;5092918;28;20198;-66
2023/05/02 14:41:20;;;;;;;0.10;0.10;;;16.30;99.90;19.20;102642.00;;;;5084143;28;20200;-66
2023/05/02 14:44:06;;;;;;;0.10;0.10;;;16.20;99.90;19.70;102625.00;;;;5091105;28;20555;-66
2023/05/02 14:46:38;;;;;;;0.47;0.47;;;16.30;99.90;19.50;102629.00;;;;5087576;28;20192;-66
2023/05/02 14:49:09;;;;;;;1.93;1.83;;;16.40;99.90;20.40;102612.00;;;;5105206;28;20237;-66
2023/05/02 14:51:46;;;;;;;0.53;0.53;;;16.60;99.90;19.70;102623.00;;;;5083206;28;20687;-66
2023/05/02 14:54:38;;;;;;;0.80;0.70;;;16.80;99.90;19.20;102640.00;;;;5092389;28;20181;-66
2023/05/02 14:57:41;;;;;;;0.10;0.10;;;16.40;99.90;20.00;102624.00;;;;5081838;28;20208;-66
2023/05/02 15:00:25;;;;;;;0.83;0.70;;;16.50;99.90;20.10;102624.00;;;;5118353;28;20196;-66
2023/05/02 15:02:56;;;;;;;3.63;2.10;;;16.70;99.90;18.00;102631.00;;;;5104446;28;20274;-66
2023/05/02 15:05:35;;;;;;;1.33;1.33;;;16.00;99.90;19.00;102603.00;;;;5087672;28;20191;-66
2023/05/02 15:08:10;;;;;;;0.40;0.40;;;16.00;99.90;19.10;102622.00;;;;5106461;28;20197;-66
2023/05/02 15:10:58;;;;;;;0.93;0.73;;;15.90;99.90;19.60;102625.00;;;;5098488;28;20187;-66
2023/05/02 15:13:47;;;;;;;3.70;1.53;;;16.20;99.90;19.60;102619.00;;;;5008355;28;20225;-66
2023/05/02 15:16:36;;;;;;;4.10;1.63;;;16.30;99.90;18.30;102639.00;;;;5105782;28;20191;-66
2023/05/02 15:19:24;;;;;;;1.27;1.17;;;15.90;99.90;18.80;102638.00;;;;5067076;28;20249;-66
2023/05/02 15:22:07;;;;;;;1.03;0.93;;;16.00;99.90;19.70;102605.00;;;;5106081;28;20211;-66
2023/05/02 15:24:51;;;;;;;0.43;0.43;;;16.10;99.90;19.40;102628.00;;;;5107839;28;20635;-66
2023/05/02 15:27:31;;;;;;;0.60;0.60;;;16.10;99.90;19.70;102630.00;;;;5093544;28;20709;-66
2023/05/02 15:30:30;;;;;;;1.83;0.50;;;16.20;99.90;18.70;102655.00;;;;5096029;28;20191;-66
2023/05/02 15:33:19;;;;;;;0.80;0.80;;;16.10;99.90;19.90;102612.00;;;;5079700;28;20213;-66
2023/05/02 15:36:29;;;;;;;3.43;1.47;;;16.20;99.90;19.50;102639.00;;;;5051181;28;20203;-66
2023/05/02 15:39:18;;;;;;;0.67;0.67;;;16.30;99.90;19.30;102647.00;;;;5113974;28;20235;-66
2023/05/02 15:42:03;;;;;;;2.73;1.63;;;16.30;99.90;17.90;102662.00;;;;5094610;28;20197;-66
2023/05/02 15:44:52;;;;;;;0.23;0.20;;;15.80;99.90;18.10;102663.00;;;;5099089;28;20588;-66
2023/05/02 15:47:41;;;;;;;0.40;0.40;;;15.40;99.90;18.40;102653.00;;;;5080572;28;20188;-66
2023/05/02 15:50:13;;;;;;;0.73;0.70;;;15.30;99.90;19.20;102649.00;;;;5087802;28;20300;-66
2023/05/02 15:52:39;;;;;;;0.10;0.10;;;15.50;99.90;19.10;102648.00;;;;5102804;28;20280;-66
2023/05/02 15:55:28;;;;;;;3.67;1.57;;;15.60;99.90;18.70;102652.00;;;;5097556;28;20191;-66
2023/05/02 15:58:03;;;;;;;1.37;1.27;;;15.90;99.90;17.90;102672.00;;;;5098087;28;20213;-66
2023/05/02 16:00:38;;;;;;;0.20;0.20;;;15.60;99.90;18.30;102668.00;;;;5105701;28;20178;-66
2023/05/02 16:03:27;;;;;;;0.37;0.37;;;15.40;99.90;18.50;102658.00;;;;5094606;28;20643;-66
2023/05/02 16:06:06;;;;;;;2.83;2.63;;;15.50;99.90;18.60;102668.00;;;;5087441;28;20183;-66
2023/05/02 16:08:32;;;;;;;1.93;1.23;;;15.50;99.90;18.80;102655.00;;;;5078300;28;20178;-65
2023/05/02 16:11:01;;;;;;;0.80;0.80;;;15.50;99.90;19.30;102633.00;;;;5101917;28;20266;-66
2023/05/02 16:13:27;;;;;;;1.00;1.00;;;15.60;99.90;18.90;102632.00;;;;5102414;28;20207;-66
2023/05/02 16:15:54;;;;;;;0.20;0.20;;;15.60;99.90;19.60;102626.00;;;;5101204;28;20193;-66
2023/05/02 16:18:22;;;;;;;0.70;0.70;;;15.80;99.90;19.70;102621.00;;;;5104246;28;20186;-65
2023/05/02 16:20:48;;;;;;;0.60;0.60;;;16.00;99.90;18.40;102638.00;;;;5099529;28;20183;-66
2023/05/02 16:23:14;;;;;;;1.27;0.73;;;15.70;99.90;19.10;102612.00;;;;5098816;28;20213;-66
2023/05/02 16:25:40;;;;;;;0.67;0.37;;;15.60;99.90;18.10;102645.00;;;;5080637;28;20187;-65
2023/05/02 16:28:11;;;;;;;0.77;0.57;;;15.50;99.90;18.60;102651.00;;;;5097317;28;20193;-66
2023/05/02 16:30:40;;;;;;;3.70;1.30;;;15.30;99.90;18.70;102644.00;;;;5102632;28;20627;-66
2023/05/02 16:33:06;;;;;;;0.10;0.10;;;15.50;99.90;18.80;102640.00;;;;5095993;28;20306;-66
2023/05/02 16:35:42;;;;;;;0.43;0.43;;;15.40;99.90;18.60;102643.00;;;;5107664;28;20217;-66
2023/05/02 16:38:08;;;;;;;0.40;0.40;;;15.50;99.90;18.80;102634.00;;;;5103597;28;20648;-64
2023/05/02 16:40:35;;;;;;;0.97;0.97;;;15.30;99.90;18.70;102638.00;;;;5109219;28;20190;-65
2023/05/02 16:43:01;;;;;;;1.50;1.40;;;15.40;99.90;17.40;102656.00;;;;5106346;28;20217;-66
2023/05/02 16:45:27;;;;;;;0.63;0.63;;;15.10;99.90;17.30;102661.00;;;;5098404;28;20191;-66
2023/05/02 16:47:56;;;;;;;8.30;1.80;;;14.80;99.90;16.90;102668.00;;;;5102608;28;20186;-65
2023/05/02 16:50:22;;;;;;;3.10;2.27;;;14.70;99.90;17.00;102669.00;;;;5109113;28;20186;-65
2023/05/02 16:52:48;;;;;;;2.43;0.80;;;14.40;99.90;17.20;102661.00;;;;5113759;28;20252;-66
2023/05/02 16:55:15;;;;;;;3.13;2.10;;;14.50;99.90;16.90;102675.00;;;;5083955;28;20714;-66
2023/05/02 16:57:41;;;;;;;0.93;0.70;;;14.40;99.90;17.80;102629.00;;;;5096872;28;20539;-65
2023/05/02 17:00:10;;;;;;;2.07;1.53;;;14.60;99.90;17.90;102661.00;;;;5108982;28;20185;-65
2023/05/02 17:02:36;;;;;;;0.20;0.20;;;14.70;99.90;17.20;102672.00;;;;5080683;28;20274;-66
2023/05/02 17:05:02;;;;;;;1.80;1.40;;;14.60;99.90;16.80;102678.00;;;;5108048;28;20264;-65
2023/05/02 17:07:31;;;;;;;0.30;0.30;;;14.40;99.90;18.00;102669.00;;;;5102473;28;20183;-66
2023/05/02 17:09:59;;;;;;;1.23;1.13;;;14.40;99.90;17.80;102652.00;;;;5105778;28;20420;-65
2023/05/02 17:12:26;;;;;;;0.27;0.27;;;14.60;99.90;18.10;102660.00;;;;5094621;28;20209;-65
2023/05/02 17:14:52;;;;;;;0.20;0.20;;;14.80;99.90;18.00;102671.00;;;;5111564;28;20208;-66
2023/05/02 17:17:41;;;;;;;0.77;0.33;;;14.70;99.90;17.20;102681.00;;;;5107200;28;20626;-66
2023/05/02 17:20:16;;;;;;;0.97;0.73;;;14.40;99.90;16.80;102690.00;;;;5096551;28;20199;-66
2023/05/02 17:22:45;;;;;;;0.53;0.53;;;14.20;99.90;17.70;102672.00;;;;5099039;28;20217;-66
2023/05/02 17:25:19;;;;;;;1.37;1.13;;;14.20;99.90;16.80;102647.00;;;;5106069;28;20182;-64
2023/05/02 17:27:45;;;;;;;6.83;1.80;;;14.30;99.90;17.40;102672.00;;;;5099002;28;20215;-64
2023/05/02 17:30:12;;;;;;;1.07;0.73;;;14.20;99.90;16.80;102674.00;;;;5098236;28;20214;-64
2023/05/02 17:32:39;;;;;;;0.33;0.33;;;14.10;99.90;17.00;102670.00;;;;5096286;28;20224;-64
2023/05/02 17:35:30;;;;;;;0.10;0.10;;;14.00;99.90;17.50;102666.00;;;;5093542;28;20168;-64
2023/05/02 17:37:56;;;;;;;0.60;0.60;;;14.10;99.90;16.80;102680.00;;;;5089497;28;20208;-64
2023/05/02 17:40:22;;;;;;;0.50;0.50;;;14.00;99.90;17.00;102683.00;;;;5105758;28;20207;-64
2023/05/02 17:42:49;;;;;;;0.33;0.33;;;14.00;99.90;17.00;102684.00;;;;5102898;28;20199;-64
2023/05/02 17:45:15;;;;;;;0.27;0.27;;;14.00;99.90;17.40;102679.00;;;;5089946;28;20642;-64
2023/05/02 17:47:42;;;;;;;1.10;1.10;;;14.10;99.90;17.00;102675.00;;;;5098711;28;20208;-64
2023/05/02 17:50:58;;;;;;;1.27;1.23;;;14.00;99.90;16.80;102685.00;;;;5103463;28;20215;-64
2023/05/02 17:53:26;;;;;;;1.47;1.37;;;13.80;99.90;16.40;102689.00;;;;5110392;28;20711;-64
2023/05/02 17:55:53;;;;;;;0.40;0.40;;;13.60;99.90;16.90;102656.00;;;;5094063;28;20192;-64
2023/05/02 17:58:20;;;;;;;1.13;1.03;;;13.60;99.90;16.20;102673.00;;;;5101915;28;20545;-64
2023/05/02 18:00:46;;;;;;;0.10;0.10;;;13.50;99.90;16.90;102667.00;;;;5100356;28;20189;-64
2023/05/02 18:03:12;;;;;;;1.80;0.87;;;13.50;99.90;16.70;102693.00;;;;5083908;28;20187;-64
2023/05/02 18:05:43;;;;;;;0.10;0.10;;;13.60;99.90;16.60;102707.00;;;;5106013;28;20178;-64
2023/05/02 18:08:09;;;;;;;0.50;0.50;;;13.50;99.90;16.60;102700.00;;;;5097741;28;20203;-64
2023/05/02 18:10:36;;;;;;;0.30;0.30;;;13.40;99.90;17.00;102698.00;;;;5092344;28;20252;-64
2023/05/02 18:13:11;;;;;;;0.73;0.73;;;13.50;99.90;15.90;102733.00;;;;5092165;28;20219;-64
2023/05/02 18:15:37;;;;;;;0.30;0.30;;;13.20;99.90;17.20;102710.00;;;;5104509;28;20187;-64
2023/05/02 18:18:24;;;;;;;0.17;0.17;;;13.40;99.90;17.40;102694.00;;;;5100843;28;20650;-64
2023/05/02 18:20:50;;;;;;;0.37;0.20;;;13.60;99.90;16.00;102734.00;;;;5097020;28;20635;-65
2023/05/02 18:23:16;;;;;;;4.57;1.60;;;13.40;99.90;16.20;102727.00;;;;5096620;28;20243;-65
2023/05/02 18:25:43;;;;;;;1.40;1.30;;;13.20;99.90;16.00;102738.00;;;;5102259;28;20188;-64
2023/05/02 18:28:09;;;;;;;0.20;0.20;;;13.10;99.90;16.30;102730.00;;;;5106759;28;20785;-65
2023/05/02 18:30:36;;;;;;;1.10;0.77;;;13.00;99.90;15.80;102744.00;;;;5098949;28;20299;-65
2023/05/02 18:33:03;;;;;;;0.70;0.70;;;13.00;99.90;15.70;102737.00;;;;5106066;28;20541;-64
2023/05/02 18:35:29;;;;;;;0.37;0.37;;;12.90;99.90;15.80;102735.00;;;;5082166;28;20261;-64
2023/05/02 18:37:55;;;;;;;0.57;0.57;;;12.80;99.90;16.00;102733.00;;;;5094983;28;20182;-64
2023/05/02 18:40:22;;;;;;;0.93;0.53;;;13.00;99.90;15.80;102717.00;;;;5092934;28;20187;-64
2023/05/02 18:42:53;;;;;;;1.03;0.80;;;12.80;99.90;15.40;102745.00;;;;5105654;28;20580;-65